Tipton, Oklahoma
Current Conditions -  °F | °C
As of 4:13 AM on Thursday 23 Oct 2014 (Local Time) from KLTS Reporting Station
Overcast Overcast  
Wind Chill: 57°   Ceiling: 4800
Heat Index: 57°   Visibility: 10mi
Dew Point: 57°   Wind: 2mph
Humidity: 100%   Direction: 310°NW
Pressure: 30.1"   Gusts: NA
Location:  34.5°N, 99.14°W
Report Text: KLTS 230913Z AUTO 31002KT 10SM BKN048 OVC085 14/14 A3010 RMK AO2 $
Loading
Personal Weather Stations






























Interactive Weather Map
Tropical Storm Tracking
New forecast layout! Learn more

10-Day Weather Forecast

Advertisements
Track Severe Weather on mobile